createdAt,value
2023-05-19T00:00:09.604Z,456.00
2023-05-19T00:01:09.666Z,457.00
2023-05-19T00:02:09.815Z,456.00
2023-05-19T00:03:09.924Z,452.00
2023-05-19T00:04:09.907Z,449.00
2023-05-19T00:05:09.885Z,449.00
2023-05-19T00:06:09.997Z,449.00
2023-05-19T00:07:10.001Z,451.00
2023-05-19T00:08:10.092Z,449.00
2023-05-19T00:09:10.135Z,450.00
2023-05-19T00:10:10.186Z,449.00
2023-05-19T00:11:10.237Z,448.00
2023-05-19T00:12:10.302Z,449.00
2023-05-19T00:13:10.349Z,448.00
2023-05-19T00:14:10.480Z,449.00
2023-05-19T00:15:10.527Z,450.00
2023-05-19T00:16:10.656Z,449.00
2023-05-19T00:17:10.608Z,450.00
2023-05-19T00:18:10.647Z,450.00
2023-05-19T00:19:10.880Z,450.00
2023-05-19T00:20:10.743Z,453.00
2023-05-19T00:21:10.808Z,456.00
2023-05-19T00:22:10.859Z,456.00
2023-05-19T00:23:10.971Z,453.00
2023-05-19T00:24:10.974Z,453.00
2023-05-19T00:25:11.033Z,452.00
2023-05-19T00:26:11.102Z,451.00
2023-05-19T00:27:11.146Z,450.00
2023-05-19T00:28:11.208Z,451.00
2023-05-19T00:29:11.257Z,450.00
2023-05-19T00:30:11.325Z,449.00
2023-05-19T00:31:11.367Z,447.00
2023-05-19T00:32:11.530Z,448.00
2023-05-19T00:33:11.569Z,445.00
2023-05-19T00:34:11.557Z,443.00
2023-05-19T00:35:11.633Z,442.00
2023-05-19T00:36:11.673Z,440.00
2023-05-19T00:37:11.728Z,441.00
2023-05-19T00:38:11.779Z,443.00
2023-05-19T00:39:11.834Z,444.00
2023-05-19T00:40:11.894Z,445.00
2023-05-19T00:41:11.974Z,448.00
2023-05-19T00:42:12.013Z,447.00
2023-05-19T00:43:12.066Z,450.00
2023-05-19T00:44:12.128Z,451.00
2023-05-19T00:45:12.179Z,452.00
2023-05-19T00:46:12.266Z,451.00
2023-05-19T00:47:12.308Z,447.00
2023-05-19T00:48:12.362Z,448.00
2023-05-19T00:49:12.490Z,448.00
2023-05-19T00:50:12.475Z,450.00
2023-05-19T00:51:12.528Z,451.00
2023-05-19T00:52:12.591Z,450.00
2023-05-19T00:53:12.646Z,453.00
2023-05-19T00:54:12.721Z,450.00
2023-05-19T00:55:12.831Z,452.00
2023-05-19T00:56:12.835Z,454.00
2023-05-19T00:57:12.884Z,457.00
2023-05-19T00:58:12.951Z,456.00
2023-05-19T00:59:13.018Z,457.00
2023-05-19T01:00:13.113Z,457.00
2023-05-19T01:01:13.219Z,454.00
2023-05-19T01:02:13.212Z,454.00
2023-05-19T01:03:13.546Z,454.00
2023-05-19T01:04:13.344Z,452.00
2023-05-19T01:05:13.944Z,451.00
2023-05-19T01:06:13.466Z,450.00
2023-05-19T01:07:13.600Z,448.00
2023-05-19T01:08:13.637Z,449.00
2023-05-19T01:09:13.713Z,452.00
2023-05-19T01:10:13.707Z,452.00
2023-05-19T01:11:13.777Z,451.00
2023-05-19T01:12:13.829Z,449.00
2023-05-19T01:13:13.903Z,447.00
2023-05-19T01:14:13.959Z,446.00
2023-05-19T01:15:14.102Z,448.00
2023-05-19T01:16:14.125Z,451.00
2023-05-19T01:17:14.164Z,450.00
2023-05-19T01:18:14.232Z,451.00
2023-05-19T01:19:14.310Z,451.00
2023-05-19T01:20:14.378Z,450.00
2023-05-19T01:21:14.423Z,450.00
2023-05-19T01:22:14.486Z,454.00
2023-05-19T01:23:14.629Z,453.00
2023-05-19T01:24:14.614Z,453.00
2023-05-19T01:25:14.685Z,454.00
2023-05-19T01:26:14.767Z,453.00
2023-05-19T01:27:14.799Z,454.00
2023-05-19T01:28:14.879Z,454.00
2023-05-19T01:29:14.944Z,452.00
2023-05-19T01:30:15.091Z,452.00
2023-05-19T01:31:15.084Z,451.00
2023-05-19T01:32:15.220Z,449.00
2023-05-19T01:33:15.206Z,450.00
2023-05-19T01:34:15.262Z,451.00
2023-05-19T01:35:15.322Z,450.00
2023-05-19T01:36:15.399Z,451.00
2023-05-19T01:37:15.458Z,451.00
2023-05-19T01:38:15.527Z,450.00
2023-05-19T01:39:15.591Z,451.00
2023-05-19T01:40:15.707Z,453.00
2023-05-19T01:41:15.729Z,453.00
2023-05-19T01:42:15.785Z,454.00
2023-05-19T01:43:16.461Z,455.00
2023-05-19T01:44:15.901Z,455.00
2023-05-19T01:45:15.983Z,457.00
2023-05-19T01:46:16.099Z,455.00
2023-05-19T01:47:16.096Z,456.00
2023-05-19T01:48:16.263Z,458.00
2023-05-19T01:49:16.217Z,458.00
2023-05-19T01:50:16.278Z,461.00
2023-05-19T01:51:16.353Z,460.00
2023-05-19T01:52:16.433Z,458.00
2023-05-19T01:53:16.493Z,458.00
2023-05-19T01:54:16.539Z,460.00
2023-05-19T01:55:16.617Z,457.00
2023-05-19T01:56:16.679Z,455.00
2023-05-19T01:57:17.467Z,453.00
2023-05-19T01:58:16.795Z,453.00
2023-05-19T01:59:16.870Z,455.00
2023-05-19T02:00:17.823Z,457.00
2023-05-19T02:01:17.041Z,453.00
2023-05-19T02:02:17.973Z,451.00
2023-05-19T02:03:17.132Z,451.00
2023-05-19T02:04:17.225Z,453.00
2023-05-19T02:05:17.258Z,454.00
2023-05-19T02:06:17.315Z,453.00
2023-05-19T02:07:17.431Z,453.00
2023-05-19T02:08:17.457Z,455.00
2023-05-19T02:09:17.518Z,452.00
2023-05-19T02:10:17.589Z,450.00
2023-05-19T02:11:17.976Z,452.00
2023-05-19T02:12:17.697Z,452.00
2023-05-19T02:13:17.759Z,452.00
2023-05-19T02:14:17.822Z,454.00
2023-05-19T02:15:17.900Z,454.00
2023-05-19T02:16:18.077Z,451.00
2023-05-19T02:17:18.027Z,452.00
2023-05-19T02:18:18.105Z,454.00
2023-05-19T02:19:18.193Z,453.00
2023-05-19T02:20:18.205Z,455.00
2023-05-19T02:21:18.281Z,457.00
2023-05-19T02:22:18.341Z,459.00
2023-05-19T02:23:18.425Z,457.00
2023-05-19T02:24:18.524Z,456.00
2023-05-19T02:25:18.563Z,455.00
2023-05-19T02:26:18.623Z,453.00
2023-05-19T02:27:18.764Z,450.00
2023-05-19T02:28:18.780Z,450.00
2023-05-19T02:29:18.849Z,451.00
2023-05-19T02:30:18.889Z,451.00
2023-05-19T02:31:19.059Z,450.00
2023-05-19T02:32:19.226Z,451.00
2023-05-19T02:33:19.082Z,451.00
2023-05-19T02:34:19.145Z,450.00
2023-05-19T02:35:19.210Z,449.00
2023-05-19T02:36:19.281Z,449.00
2023-05-19T02:37:19.974Z,447.00
2023-05-19T02:38:19.397Z,446.00
2023-05-19T02:39:19.484Z,445.00
2023-05-19T02:40:19.545Z,447.00
2023-05-19T02:41:19.604Z,448.00
2023-05-19T02:42:19.671Z,450.00
2023-05-19T02:43:19.726Z,450.00
2023-05-19T02:44:19.796Z,452.00
2023-05-19T02:45:19.864Z,451.00
2023-05-19T02:46:19.992Z,451.00
2023-05-19T02:47:19.999Z,449.00
2023-05-19T02:48:20.082Z,449.00
2023-05-19T02:49:20.127Z,448.00
2023-05-19T02:50:20.207Z,449.00
2023-05-19T02:51:20.361Z,452.00
2023-05-19T02:52:20.344Z,452.00
2023-05-19T02:53:20.414Z,456.00
2023-05-19T02:54:20.494Z,453.00
2023-05-19T02:55:20.558Z,455.00
2023-05-19T02:56:20.656Z,455.00
2023-05-19T02:57:20.693Z,456.00
2023-05-19T02:58:20.769Z,456.00
2023-05-19T02:59:20.824Z,455.00
2023-05-19T03:00:20.922Z,456.00
2023-05-19T03:01:21.033Z,456.00
2023-05-19T03:02:21.069Z,455.00
2023-05-19T03:03:21.155Z,455.00
2023-05-19T03:04:21.161Z,457.00
2023-05-19T03:05:21.335Z,454.00
2023-05-19T03:06:21.315Z,454.00
2023-05-19T03:07:21.387Z,455.00
2023-05-19T03:08:21.464Z,456.00
2023-05-19T03:09:21.523Z,453.00
2023-05-19T03:10:21.586Z,454.00
2023-05-19T03:11:21.991Z,454.00
2023-05-19T03:12:21.719Z,455.00
2023-05-19T03:13:21.821Z,456.00
2023-05-19T03:14:21.857Z,456.00
2023-05-19T03:15:21.919Z,456.00
2023-05-19T03:16:22.028Z,454.00
2023-05-19T03:17:22.149Z,456.00
2023-05-19T03:18:22.196Z,456.00
2023-05-19T03:19:22.282Z,457.00
2023-05-19T03:20:22.265Z,458.00
2023-05-19T03:21:22.347Z,460.00
2023-05-19T03:22:22.439Z,459.00
2023-05-19T03:23:22.496Z,458.00
2023-05-19T03:24:22.571Z,457.00
2023-05-19T03:25:22.639Z,456.00
2023-05-19T03:26:22.788Z,458.00
2023-05-19T03:27:22.789Z,455.00
2023-05-19T03:28:22.846Z,451.00
2023-05-19T03:29:22.990Z,450.00
2023-05-19T03:30:22.985Z,450.00
2023-05-19T03:31:23.061Z,452.00
2023-05-19T03:32:23.195Z,450.00
2023-05-19T03:33:23.364Z,450.00
2023-05-19T03:34:23.258Z,450.00
2023-05-19T03:35:23.329Z,452.00
2023-05-19T03:36:23.422Z,453.00
2023-05-19T03:37:23.465Z,451.00
2023-05-19T03:38:23.539Z,452.00
2023-05-19T03:39:23.603Z,454.00
2023-05-19T03:40:23.676Z,455.00
2023-05-19T03:41:23.748Z,453.00
2023-05-19T03:42:23.818Z,453.00
2023-05-19T03:43:23.886Z,454.00
2023-05-19T03:44:23.980Z,454.00
2023-05-19T03:45:24.046Z,453.00
2023-05-19T03:46:24.154Z,455.00
2023-05-19T03:47:24.245Z,455.00
2023-05-19T03:48:24.261Z,452.00
2023-05-19T03:49:24.385Z,454.00
2023-05-19T03:50:24.430Z,458.00
2023-05-19T03:51:24.516Z,456.00
2023-05-19T03:52:24.577Z,455.00
2023-05-19T03:53:24.668Z,454.00
2023-05-19T03:54:24.722Z,454.00
2023-05-19T03:55:24.801Z,451.00
2023-05-19T03:56:24.869Z,452.00
2023-05-19T03:57:24.946Z,449.00
2023-05-19T03:58:25.025Z,447.00
2023-05-19T03:59:25.095Z,446.00
2023-05-19T04:00:25.250Z,447.00
2023-05-19T04:01:25.246Z,448.00
2023-05-19T04:02:25.391Z,446.00
2023-05-19T04:03:25.420Z,444.00
2023-05-19T04:04:25.508Z,445.00
2023-05-19T04:05:25.536Z,444.00
2023-05-19T04:06:25.612Z,448.00
2023-05-19T04:07:25.673Z,450.00
2023-05-19T04:08:25.769Z,453.00
2023-05-19T04:09:25.832Z,452.00
2023-05-19T04:10:25.908Z,449.00
2023-05-19T04:11:25.981Z,449.00
2023-05-19T04:12:26.514Z,449.00
2023-05-19T04:13:26.246Z,451.00
2023-05-19T04:14:26.257Z,449.00
2023-05-19T04:15:26.265Z,448.00
2023-05-19T04:16:26.452Z,448.00
2023-05-19T04:17:26.477Z,445.00
2023-05-19T04:18:28.813Z,448.00
2023-05-19T04:19:26.854Z,448.00
2023-05-19T04:20:26.792Z,449.00
2023-05-19T04:21:26.869Z,448.00
2023-05-19T04:22:26.941Z,448.00
2023-05-19T04:23:27.062Z,448.00
2023-05-19T04:24:27.100Z,448.00
2023-05-19T04:25:27.175Z,446.00
2023-05-19T04:26:27.296Z,448.00
2023-05-19T04:27:27.300Z,448.00
2023-05-19T04:28:27.375Z,445.00
2023-05-19T04:29:27.462Z,448.00
2023-05-19T04:30:27.533Z,447.00
2023-05-19T04:31:27.639Z,446.00
2023-05-19T04:32:27.739Z,447.00
2023-05-19T04:33:27.763Z,447.00
2023-05-19T04:34:27.837Z,447.00
2023-05-19T04:35:27.909Z,447.00
2023-05-19T04:36:27.980Z,448.00
2023-05-19T04:37:28.064Z,447.00
2023-05-19T04:38:28.137Z,446.00
2023-05-19T04:39:28.313Z,445.00
2023-05-19T04:40:28.416Z,446.00
2023-05-19T04:41:28.377Z,448.00
2023-05-19T04:42:28.499Z,448.00
2023-05-19T04:43:29.022Z,451.00
2023-05-19T04:44:28.598Z,450.00
2023-05-19T04:45:28.662Z,450.00
2023-05-19T04:46:28.757Z,449.00
2023-05-19T04:47:28.828Z,447.00
2023-05-19T04:48:28.872Z,445.00
2023-05-19T04:49:28.939Z,448.00
2023-05-19T04:50:29.025Z,449.00
2023-05-19T04:51:30.519Z,449.00
2023-05-19T04:52:29.172Z,447.00
2023-05-19T04:53:29.243Z,447.00
2023-05-19T04:54:29.334Z,444.00
2023-05-19T04:55:29.404Z,445.00
2023-05-19T04:56:29.487Z,445.00
2023-05-19T04:57:29.550Z,445.00
2023-05-19T04:58:29.622Z,445.00
2023-05-19T04:59:29.712Z,444.00
2023-05-19T05:00:29.929Z,446.00
2023-05-19T05:01:29.898Z,446.00
2023-05-19T05:02:29.959Z,447.00
2023-05-19T05:03:30.117Z,446.00
2023-05-19T05:04:30.093Z,447.00
2023-05-19T05:05:30.169Z,447.00
2023-05-19T05:06:30.253Z,446.00
2023-05-19T05:07:32.225Z,447.00
2023-05-19T05:08:30.383Z,447.00
2023-05-19T05:09:30.476Z,447.00
2023-05-19T05:10:30.802Z,450.00
2023-05-19T05:11:30.615Z,449.00
2023-05-19T05:12:30.691Z,448.00
2023-05-19T05:13:30.774Z,445.00
2023-05-19T05:14:30.856Z,447.00
2023-05-19T05:15:30.927Z,446.00
2023-05-19T05:16:31.036Z,448.00
2023-05-19T05:17:31.072Z,450.00
2023-05-19T05:18:31.142Z,451.00
2023-05-19T05:19:31.290Z,452.00
2023-05-19T05:20:31.532Z,453.00
2023-05-19T05:21:31.370Z,454.00
2023-05-19T05:22:31.449Z,452.00
2023-05-19T05:23:31.519Z,453.00
2023-05-19T05:24:31.587Z,453.00
2023-05-19T05:25:31.854Z,453.00
2023-05-19T05:26:31.745Z,452.00
2023-05-19T05:27:31.821Z,452.00
2023-05-19T05:28:31.887Z,451.00
2023-05-19T05:29:31.969Z,450.00
2023-05-19T05:30:32.042Z,450.00
2023-05-19T05:31:32.119Z,450.00
2023-05-19T05:32:32.287Z,452.00
2023-05-19T05:33:32.341Z,450.00
2023-05-19T05:34:32.319Z,450.00
2023-05-19T05:35:32.564Z,448.00
2023-05-19T05:36:32.470Z,449.00
2023-05-19T05:37:32.539Z,448.00
2023-05-19T05:38:32.601Z,448.00
2023-05-19T05:39:32.690Z,448.00
2023-05-19T05:40:32.754Z,447.00
2023-05-19T05:41:33.047Z,447.00
2023-05-19T05:42:32.877Z,446.00
2023-05-19T05:43:32.937Z,446.00
2023-05-19T05:44:33.020Z,444.00
2023-05-19T05:45:33.327Z,442.00
2023-05-19T05:46:33.271Z,443.00
2023-05-19T05:47:33.260Z,443.00
2023-05-19T05:48:33.305Z,443.00
2023-05-19T05:49:33.460Z,444.00
2023-05-19T05:50:33.504Z,444.00
2023-05-19T05:51:33.615Z,443.00
2023-05-19T05:52:33.614Z,444.00
2023-05-19T05:53:33.700Z,444.00
2023-05-19T05:54:33.762Z,449.00
2023-05-19T05:55:34.035Z,447.00
2023-05-19T05:56:33.916Z,448.00
2023-05-19T05:57:33.982Z,444.00
2023-05-19T05:58:35.209Z,445.00
2023-05-19T05:59:34.121Z,447.00
2023-05-19T06:00:34.506Z,445.00
2023-05-19T06:01:35.596Z,444.00
2023-05-19T06:02:34.442Z,444.00
2023-05-19T06:03:34.488Z,445.00
2023-05-19T06:04:34.513Z,445.00
2023-05-19T06:05:34.612Z,444.00
2023-05-19T06:06:35.047Z,443.00
2023-05-19T06:07:34.738Z,443.00
2023-05-19T06:08:34.827Z,443.00
2023-05-19T06:09:34.921Z,443.00
2023-05-19T06:10:35.260Z,443.00
2023-05-19T06:11:35.072Z,445.00
2023-05-19T06:12:35.120Z,445.00
2023-05-19T06:13:35.194Z,448.00
2023-05-19T06:14:35.286Z,446.00
2023-05-19T06:15:35.380Z,444.00
2023-05-19T06:16:35.632Z,443.00
2023-05-19T06:17:35.501Z,445.00
2023-05-19T06:18:35.580Z,446.00
2023-05-19T06:19:35.635Z,445.00
2023-05-19T06:20:35.981Z,446.00
2023-05-19T06:21:35.796Z,443.00
2023-05-19T06:22:35.858Z,443.00
2023-05-19T06:23:35.943Z,443.00
2023-05-19T06:24:38.659Z,444.00
2023-05-19T06:25:36.018Z,445.00
2023-05-19T06:26:36.019Z,445.00
2023-05-19T06:27:36.033Z,444.00
2023-05-19T06:28:36.051Z,441.00
2023-05-19T06:29:36.066Z,441.00
2023-05-19T06:30:36.069Z,442.00
2023-05-19T06:31:36.089Z,443.00
2023-05-19T06:32:36.137Z,442.00
2023-05-19T06:33:36.101Z,442.00
2023-05-19T06:34:36.105Z,447.00
2023-05-19T06:35:36.113Z,445.00
2023-05-19T06:36:36.129Z,443.00
2023-05-19T06:37:36.139Z,443.00
2023-05-19T06:38:36.140Z,442.00
2023-05-19T06:39:36.141Z,443.00
2023-05-19T06:40:36.155Z,442.00
2023-05-19T06:41:36.169Z,441.00
2023-05-19T06:42:36.176Z,442.00
2023-05-19T06:43:36.204Z,443.00
2023-05-19T06:44:36.190Z,444.00
2023-05-19T06:45:36.220Z,445.00
2023-05-19T06:46:36.296Z,443.00
2023-05-19T06:47:36.259Z,445.00
2023-05-19T06:48:36.238Z,445.00
2023-05-19T06:49:36.250Z,442.00
2023-05-19T06:50:36.244Z,443.00
2023-05-19T06:51:36.255Z,440.00
2023-05-19T06:52:36.237Z,440.00
2023-05-19T06:53:36.254Z,440.00
2023-05-19T06:54:36.257Z,442.00
2023-05-19T06:55:41.384Z,442.00
2023-05-19T06:56:37.283Z,440.00
2023-05-19T06:57:36.292Z,439.00
2023-05-19T06:58:36.301Z,439.00
2023-05-19T06:59:36.300Z,438.00
2023-05-19T07:00:36.373Z,439.00
2023-05-19T07:01:36.398Z,439.00
2023-05-19T07:02:36.354Z,441.00
2023-05-19T07:03:36.439Z,440.00
2023-05-19T07:04:36.365Z,440.00
2023-05-19T07:05:36.442Z,439.00
2023-05-19T07:06:36.518Z,440.00
2023-05-19T07:07:36.571Z,444.00
2023-05-19T07:08:36.640Z,444.00
2023-05-19T07:09:36.695Z,441.00
2023-05-19T07:10:36.766Z,441.00
2023-05-19T07:11:36.836Z,443.00
2023-05-19T07:12:36.905Z,442.00
2023-05-19T07:13:36.973Z,443.00
2023-05-19T07:14:37.033Z,443.00
2023-05-19T07:15:37.088Z,443.00
2023-05-19T07:16:37.190Z,444.00
2023-05-19T07:17:37.225Z,443.00
2023-05-19T07:18:37.308Z,446.00
2023-05-19T07:19:37.346Z,447.00
2023-05-19T07:20:37.452Z,448.00
2023-05-19T07:21:37.482Z,446.00
2023-05-19T07:22:37.550Z,445.00
2023-05-19T07:23:37.594Z,445.00
2023-05-19T07:24:37.667Z,447.00
2023-05-19T07:25:37.713Z,448.00
2023-05-19T07:26:37.786Z,448.00
2023-05-19T07:27:37.839Z,449.00
2023-05-19T07:28:40.692Z,451.00
2023-05-19T07:29:37.903Z,450.00
2023-05-19T07:30:37.908Z,447.00
2023-05-19T07:31:37.950Z,445.00
2023-05-19T07:32:37.927Z,443.00
2023-05-19T07:33:37.931Z,442.00
2023-05-19T07:34:37.941Z,444.00
2023-05-19T07:35:37.942Z,443.00
2023-05-19T07:36:37.955Z,443.00
2023-05-19T07:37:37.961Z,443.00
2023-05-19T07:38:38.071Z,441.00
2023-05-19T07:39:37.966Z,441.00
2023-05-19T07:40:37.986Z,440.00
2023-05-19T07:41:38.000Z,440.00
2023-05-19T07:42:37.989Z,441.00
2023-05-19T07:43:37.998Z,441.00
2023-05-19T07:44:38.010Z,438.00
2023-05-19T07:45:38.145Z,437.00
2023-05-19T07:46:38.115Z,439.00
2023-05-19T07:47:38.040Z,443.00
2023-05-19T07:48:38.030Z,444.00
2023-05-19T07:49:38.033Z,444.00
2023-05-19T07:50:38.065Z,444.00
2023-05-19T07:51:38.050Z,446.00
2023-05-19T07:52:38.069Z,448.00
2023-05-19T07:53:38.046Z,447.00
2023-05-19T07:54:38.048Z,447.00
2023-05-19T07:55:38.057Z,444.00
2023-05-19T07:56:38.067Z,442.00
2023-05-19T07:57:38.126Z,444.00
2023-05-19T07:58:38.193Z,440.00
2023-05-19T07:59:38.253Z,440.00
2023-05-19T08:00:38.322Z,438.00
2023-05-19T08:01:38.468Z,438.00
2023-05-19T08:02:38.597Z,437.00
2023-05-19T08:03:38.630Z,439.00
2023-05-19T08:04:38.664Z,439.00
2023-05-19T08:05:38.669Z,438.00
2023-05-19T08:06:38.740Z,438.00
2023-05-19T08:07:38.794Z,436.00
2023-05-19T08:08:38.855Z,435.00
2023-05-19T08:09:38.910Z,435.00
2023-05-19T08:10:38.972Z,436.00
2023-05-19T08:11:39.076Z,437.00
2023-05-19T08:12:39.083Z,437.00
2023-05-19T08:13:39.148Z,435.00
2023-05-19T08:14:39.190Z,434.00
2023-05-19T08:15:39.304Z,435.00
2023-05-19T08:16:39.312Z,435.00
2023-05-19T08:17:39.420Z,436.00
2023-05-19T08:18:39.481Z,436.00
2023-05-19T08:19:39.480Z,437.00
2023-05-19T08:20:39.566Z,437.00
2023-05-19T08:21:39.599Z,433.00
2023-05-19T08:22:39.655Z,433.00
2023-05-19T08:23:39.708Z,433.00
2023-05-19T08:24:39.753Z,434.00
2023-05-19T08:25:39.827Z,437.00
2023-05-19T08:26:39.860Z,440.00
2023-05-19T08:27:40.596Z,437.00
2023-05-19T08:28:39.959Z,438.00
2023-05-19T08:29:40.016Z,438.00
2023-05-19T08:30:40.067Z,438.00
2023-05-19T08:31:40.207Z,437.00
2023-05-19T08:32:40.214Z,438.00
2023-05-19T08:33:40.201Z,440.00
2023-05-19T08:34:40.261Z,441.00
2023-05-19T08:35:40.286Z,441.00
2023-05-19T08:36:40.338Z,439.00
2023-05-19T08:37:40.385Z,439.00
2023-05-19T08:38:40.415Z,439.00
2023-05-19T08:39:40.457Z,439.00
2023-05-19T08:40:40.482Z,440.00
2023-05-19T08:41:40.526Z,440.00
2023-05-19T08:42:40.558Z,441.00
2023-05-19T08:43:40.592Z,444.00
2023-05-19T08:44:40.631Z,442.00
2023-05-19T08:45:40.699Z,443.00
2023-05-19T08:46:40.767Z,444.00
2023-05-19T08:47:40.787Z,443.00
2023-05-19T08:48:40.843Z,443.00
2023-05-19T08:49:40.807Z,443.00
2023-05-19T08:50:40.845Z,440.00
2023-05-19T08:51:40.865Z,440.00
2023-05-19T08:52:40.907Z,439.00
2023-05-19T08:53:40.920Z,441.00
2023-05-19T08:54:40.951Z,444.00
2023-05-19T08:55:40.968Z,445.00
2023-05-19T08:56:40.986Z,445.00
2023-05-19T08:57:41.014Z,445.00
2023-05-19T08:58:41.029Z,443.00
2023-05-19T08:59:41.056Z,442.00
2023-05-19T09:00:41.079Z,442.00
2023-05-19T09:01:41.106Z,440.00
2023-05-19T09:02:50.543Z,441.00
2023-05-19T09:03:43.126Z,442.00
2023-05-19T09:04:41.114Z,442.00
2023-05-19T09:05:41.115Z,442.00
2023-05-19T09:06:41.105Z,443.00
2023-05-19T09:07:41.087Z,443.00
2023-05-19T09:08:41.096Z,441.00
2023-05-19T09:09:41.069Z,442.00
2023-05-19T09:10:41.060Z,442.00
2023-05-19T09:11:41.056Z,441.00
2023-05-19T09:12:41.063Z,440.00
2023-05-19T09:13:41.066Z,440.00
2023-05-19T09:14:41.048Z,443.00
2023-05-19T09:15:41.046Z,443.00
2023-05-19T09:16:41.665Z,443.00
2023-05-19T09:17:41.084Z,447.00
2023-05-19T09:18:41.132Z,444.00
2023-05-19T09:19:41.037Z,443.00
2023-05-19T09:20:41.063Z,442.00
2023-05-19T09:21:41.044Z,442.00
2023-05-19T09:22:41.043Z,443.00
2023-05-19T09:23:41.045Z,443.00
2023-05-19T09:24:41.060Z,445.00
2023-05-19T09:25:41.048Z,444.00
2023-05-19T09:26:41.076Z,445.00
2023-05-19T09:27:41.042Z,447.00
2023-05-19T09:28:41.055Z,447.00
2023-05-19T09:29:41.622Z,445.00
2023-05-19T09:30:41.065Z,445.00
2023-05-19T09:31:41.101Z,447.00
2023-05-19T09:32:41.120Z,445.00
2023-05-19T09:33:44.357Z,446.00
2023-05-19T09:34:41.074Z,445.00
2023-05-19T09:35:41.081Z,442.00
2023-05-19T09:36:41.078Z,444.00
2023-05-19T09:37:41.065Z,445.00
2023-05-19T09:38:41.056Z,444.00
2023-05-19T09:39:41.051Z,442.00
2023-05-19T09:40:41.039Z,442.00
2023-05-19T09:41:41.039Z,445.00
2023-05-19T09:42:41.030Z,445.00
2023-05-19T09:43:41.046Z,447.00
2023-05-19T09:44:41.066Z,447.00
2023-05-19T09:45:41.669Z,448.00
2023-05-19T09:46:41.110Z,447.00
2023-05-19T09:47:41.107Z,447.00
2023-05-19T09:48:41.005Z,446.00
2023-05-19T09:49:40.998Z,445.00
2023-05-19T09:50:41.002Z,447.00
2023-05-19T09:51:41.024Z,446.00
2023-05-19T09:52:41.048Z,446.00
2023-05-19T09:53:41.008Z,447.00
2023-05-19T09:54:40.980Z,448.00
2023-05-19T09:55:40.968Z,446.00
2023-05-19T09:56:40.965Z,445.00
2023-05-19T09:57:40.961Z,445.00
2023-05-19T09:58:40.966Z,441.00
2023-05-19T09:59:40.960Z,440.00
2023-05-19T10:00:41.029Z,443.00
2023-05-19T10:01:41.030Z,444.00
2023-05-19T10:02:40.940Z,440.00
2023-05-19T10:03:40.939Z,443.00
2023-05-19T10:04:40.947Z,444.00
2023-05-19T10:05:40.927Z,446.00
2023-05-19T10:06:40.936Z,444.00
2023-05-19T10:07:40.911Z,446.00
2023-05-19T10:08:40.904Z,446.00
2023-05-19T10:09:41.708Z,444.00
2023-05-19T10:10:40.890Z,443.00
2023-05-19T10:11:40.943Z,444.00
2023-05-19T10:12:40.876Z,440.00
2023-05-19T10:13:40.867Z,438.00
2023-05-19T10:14:40.855Z,435.00
2023-05-19T10:15:53.675Z,433.00
2023-05-19T10:16:41.893Z,433.00
2023-05-19T10:17:40.892Z,433.00
2023-05-19T10:18:40.885Z,430.00
2023-05-19T10:19:40.840Z,430.00
2023-05-19T10:20:40.833Z,435.00
2023-05-19T10:21:40.827Z,437.00
2023-05-19T10:22:40.809Z,437.00
2023-05-19T10:23:40.812Z,435.00
2023-05-19T10:24:40.820Z,434.00
2023-05-19T10:25:40.794Z,435.00
2023-05-19T10:26:40.805Z,437.00
2023-05-19T10:27:40.855Z,439.00
2023-05-19T10:28:40.799Z,439.00
2023-05-19T10:29:40.783Z,438.00
2023-05-19T10:30:40.773Z,438.00
2023-05-19T10:31:40.776Z,439.00
2023-05-19T10:32:40.869Z,440.00
2023-05-19T10:33:40.760Z,442.00
2023-05-19T10:34:40.743Z,441.00
2023-05-19T10:35:40.738Z,444.00
2023-05-19T10:36:40.743Z,443.00
2023-05-19T10:37:40.732Z,443.00
2023-05-19T10:38:40.742Z,442.00
2023-05-19T10:39:40.783Z,441.00
2023-05-19T10:40:40.709Z,443.00
2023-05-19T10:41:40.697Z,444.00
2023-05-19T10:42:40.710Z,442.00
2023-05-19T10:43:40.705Z,439.00
2023-05-19T10:44:40.690Z,439.00
2023-05-19T10:45:40.693Z,436.00
2023-05-19T10:46:40.698Z,438.00
2023-05-19T10:47:40.725Z,439.00
2023-05-19T10:48:40.676Z,440.00
2023-05-19T10:49:40.678Z,442.00
2023-05-19T10:50:40.677Z,442.00
2023-05-19T10:51:40.670Z,445.00
2023-05-19T10:52:40.668Z,446.00
2023-05-19T10:53:40.657Z,445.00
2023-05-19T10:54:40.667Z,444.00
2023-05-19T10:55:40.660Z,444.00
2023-05-19T10:56:40.646Z,444.00
2023-05-19T10:57:40.655Z,446.00
2023-05-19T10:58:40.666Z,447.00
2023-05-19T10:59:40.685Z,442.00
2023-05-19T11:00:40.690Z,444.00
2023-05-19T11:01:40.755Z,442.00
2023-05-19T11:02:40.743Z,442.00
2023-05-19T11:03:43.055Z,443.00
2023-05-19T11:04:40.904Z,440.00
2023-05-19T11:05:40.857Z,440.00
2023-05-19T11:06:40.864Z,439.00
2023-05-19T11:07:40.891Z,440.00
2023-05-19T11:08:40.889Z,439.00
2023-05-19T11:09:41.112Z,441.00
2023-05-19T11:10:40.909Z,440.00
2023-05-19T11:11:40.920Z,441.00
2023-05-19T11:12:40.920Z,441.00
2023-05-19T11:13:40.938Z,444.00
2023-05-19T11:14:40.959Z,444.00
2023-05-19T11:15:41.037Z,444.00
2023-05-19T11:16:41.004Z,444.00
2023-05-19T11:17:41.024Z,444.00
2023-05-19T11:18:41.029Z,446.00
2023-05-19T11:19:41.004Z,445.00
2023-05-19T11:20:41.130Z,445.00
2023-05-19T11:21:41.054Z,448.00
2023-05-19T11:22:41.062Z,448.00
2023-05-19T11:23:41.120Z,448.00
2023-05-19T11:24:41.062Z,447.00
2023-05-19T11:25:41.073Z,446.00
2023-05-19T11:26:41.094Z,442.00
2023-05-19T11:27:41.109Z,442.00
2023-05-19T11:28:41.141Z,442.00
2023-05-19T11:29:41.126Z,442.00
2023-05-19T11:30:41.136Z,442.00
2023-05-19T11:31:41.200Z,440.00
2023-05-19T11:32:41.231Z,441.00
2023-05-19T11:33:41.187Z,443.00
2023-05-19T11:34:41.205Z,445.00
2023-05-19T11:35:41.281Z,446.00
2023-05-19T11:36:41.253Z,446.00
2023-05-19T11:37:41.257Z,448.00
2023-05-19T11:38:41.263Z,446.00
2023-05-19T11:39:41.284Z,446.00
2023-05-19T11:40:41.291Z,443.00
2023-05-19T11:41:41.312Z,443.00
2023-05-19T11:42:41.343Z,443.00
2023-05-19T11:43:41.326Z,441.00
2023-05-19T11:44:42.160Z,440.00
2023-05-19T11:45:41.371Z,437.00
2023-05-19T11:46:41.439Z,439.00
2023-05-19T11:47:56.487Z,438.00
2023-05-19T11:48:42.415Z,439.00
2023-05-19T11:49:41.361Z,439.00
2023-05-19T11:50:41.360Z,437.00
2023-05-19T11:51:41.356Z,437.00
2023-05-19T11:52:41.358Z,438.00
2023-05-19T11:53:41.341Z,439.00
2023-05-19T11:54:41.347Z,440.00
2023-05-19T11:55:41.344Z,441.00
2023-05-19T11:56:41.339Z,442.00
2023-05-19T11:57:44.723Z,443.00
2023-05-19T11:58:42.333Z,444.00
2023-05-19T11:59:41.330Z,443.00
2023-05-19T12:00:41.355Z,444.00
2023-05-19T12:01:41.389Z,443.00
2023-05-19T12:02:41.384Z,442.00
2023-05-19T12:03:41.397Z,442.00
2023-05-19T12:04:41.378Z,441.00
2023-05-19T12:05:43.390Z,440.00
2023-05-19T12:06:41.671Z,440.00
2023-05-19T12:07:41.547Z,438.00
2023-05-19T12:08:41.579Z,437.00
2023-05-19T12:09:41.561Z,436.00
2023-05-19T12:10:41.588Z,432.00
2023-05-19T12:11:41.595Z,433.00
2023-05-19T12:12:41.611Z,434.00
2023-05-19T12:13:41.631Z,435.00
2023-05-19T12:14:41.638Z,435.00
2023-05-19T12:15:41.655Z,435.00
2023-05-19T12:16:41.697Z,437.00
2023-05-19T12:17:41.707Z,436.00
2023-05-19T12:18:41.716Z,437.00
2023-05-19T12:19:41.713Z,438.00
2023-05-19T12:20:41.727Z,437.00
2023-05-19T12:21:41.725Z,435.00
2023-05-19T12:22:41.761Z,436.00
2023-05-19T12:23:41.753Z,437.00
2023-05-19T12:24:41.797Z,434.00
2023-05-19T12:25:41.796Z,433.00
2023-05-19T12:26:41.797Z,430.00
2023-05-19T12:27:41.811Z,429.00
2023-05-19T12:28:41.820Z,431.00